Terminal Aerodrome Forecast
Issued by NWS Norman, OK

Home | Current Version | Previous Version | Text Only | Print | Product List | Glossary On
Versions: 1 2 3 4 5 6 7 8 9 10 11 12 13 14 15
000
FTUS44 KOUN 282320
TAFOKC
TAF
KOKC 282320Z 2900/2924 13010KT P6SM BKN050
     FM290300 08014KT P6SM OVC040
     FM290700 07014KT 5SM TSRA BR OVC025CB
     FM291200 04015G25KT P6SM RA VCTS OVC015CB
     FM291600 34017KT 2SM BR OVC009
      TEMPO 2916/2920 -RA=

USA.gov is the U.S. government's official web portal to all federal, state and local government web resources and services.